Terminal Aerodrome Forecast
Issued by NWS Houston/Galveston, TX

Home | Current Version | Previous Version | Text Only | Print | Product List | Glossary On
Versions: 1 2 3 4 5 6 7 8 9 10 11 12 13 14 15 16 17 18 19 20 21 22 23 24 25 26 27 28
000
FTUS44 KHGX 290820 AAC
TAFGLS
TAF AMD
KGLS 290820Z 2908/3006 04011KT P6SM -RA FEW020 SCT050 BKN070
      TEMPO 2908/2910 6SM -TSRA BKN035CB
     FM291000 06010KT P6SM -RA VCTS SCT012 BKN020CB
      TEMPO 2910/2914 TSRA BKN012CB
     FM291400 07010KT P6SM -RA VCTS BKN015CB
      TEMPO 2914/2916 TSRA
     FM291800 07010KT P6SM SCT025 BKN120
     FM300300 09012KT P6SM SCT015 BKN035 OVC120=

USA.gov is the U.S. government's official web portal to all federal, state and local government web resources and services.